Daily Tabular Data
[Select Refresh to Update]


5/3/26
Time         Wind Dir   Wind Spd  Wind Gust     Hum In   Humidity    Temp In       Temp  Raw Barom   Tot Rain Wind Chill Heat Ix In Heat Index  Dew Point  DailyRain   HourRain   RainRate
                    °        mph        mph          %          %         °F         °F         in         in         °F         °F         °F         °F         in         in      in/hr
12:00am           120          2          5         54         92       73.7       58.4      29.03      15.52       58.4       74.9       64.3       56.1       0.00       0.00      0.000
12:30am           108          5          7         54         91       73.4       58.5      29.03      15.52       58.2       74.6       64.3       55.9       0.00       0.00      0.000
1:00am            110          2          8         55         91       73.2       58.7      29.03      15.52       58.7       74.5       64.5       56.1       0.00       0.00      0.000
1:30am            153          0          5         55         93       73.1       58.3      29.03      15.52       58.3       74.4       64.4       56.3       0.00       0.00      0.000
2:00am            213          0          0         55         94       72.9       58.4      29.02      15.52       58.4       74.2       64.6       56.7       0.00       0.00      0.000
2:30am            279          1          4         55         95       72.6       57.0      29.02      15.52       57.0       73.9       63.4       55.6       0.00       0.00      0.000
3:00am            262          0          4         55         96       72.4       56.7      29.01      15.53       56.7       73.7       63.3       55.6       0.01       0.01      0.000
3:30am            283          2          6         56         96       72.2       56.1      29.01      15.53       56.1       73.6       62.7       55.0       0.01       0.01      0.000
4:00am            239          0          5         56         96       71.9       55.7      29.01      15.53       55.7       73.3       62.3       54.6       0.01       0.01      0.000
4:30am            269          0          6         56         97       71.7       55.5      29.01      15.54       55.5       73.1       62.2       54.7       0.02       0.01      0.000
5:00am            221          1          5         56         97       71.6       55.4      29.01      15.54       55.4       73.0       62.1       54.6       0.02       0.01      0.000
5:30am            258          1          7         57         97       71.4       55.1      29.01      15.54       55.1       72.9       61.8       54.3       0.02       0.01      0.000
6:00am            308          2          4         57         97       71.2       54.8      29.03      15.55       54.8       72.7       61.5       54.0       0.03       0.01      0.000
6:30am            294          0          4         57         97       71.1       55.0      29.03      15.55       55.0       72.6       61.7       54.2       0.03       0.01      0.000
7:00am            277          0          0         57         97       70.9       55.4      29.04      15.55       55.4       72.4       62.1       54.6       0.03       0.01      0.000
7:30am             82          0          2         57         98       70.8       56.0      29.05      15.55       56.0       72.3       62.9       55.4       0.03       0.00      0.000
8:00am             99          0          3         57         98       70.7       56.7      29.05      15.55       56.7       72.2       63.6       56.1       0.03       0.00      0.000
8:30am            104          0          2         57         97       70.6       56.6      29.05      15.55       56.6       72.1       63.3       55.8       0.03       0.00      0.000
9:00am            151          0          0         57         95       70.8       58.5      29.05      15.55       58.5       72.3       64.9       57.1       0.03       0.00      0.000
9:30am            139          0          4         57         89       71.4       59.2      29.06      15.55       59.2       72.9       64.7       56.0       0.03       0.00      0.000
10:00am           127          0          3         56         87       71.8       60.1      29.07      15.55       60.1       73.2       65.3       56.2       0.03       0.00      0.000
10:30am           289          0          3         56         86       72.2       60.8      29.07      15.55       60.8       73.6       65.9       56.6       0.03       0.00      0.000
11:00am           286          3          6         55         85       72.4       59.2      29.07      15.55       59.2       73.7       64.1       54.7       0.03       0.00      0.000
11:30am           272          0          5         55         87       72.5       59.2      29.08      15.55       59.2       73.8       64.4       55.3       0.03       0.00      0.000
12:00pm           300          0          6         55         84       72.0       59.3      29.07      15.55       59.3       73.3       64.1       54.5       0.03       0.00      0.000
12:30pm           278          3          6         55         83       71.7       60.2      29.07      15.55       60.2       73.0       64.8       55.0       0.03       0.00      0.000
1:00pm            296          0          6         56         80       72.0       63.1      29.06      15.55       63.1       73.4       67.3       56.8       0.03       0.00      0.000
1:30pm            102          5          9         54         74       72.7       64.3      29.05      15.55       64.3       73.9       67.7       55.8       0.03       0.00      0.000
2:00pm            153          5          7         52         71       73.3       65.5      29.05      15.55       65.5       74.3       68.6       55.9       0.03       0.00      0.000
2:30pm            105          0          8         51         66       73.6       67.0      29.04      15.55       67.0       74.5       69.5       55.3       0.03       0.00      0.000
3:00pm            234          1          8         50         61       73.9       67.6      29.03      15.55       67.6       74.7       69.5       53.7       0.03       0.00      0.000
3:30pm            283          3          9         47         62       73.7       65.2      29.03      15.55       65.2       74.2       67.2       51.9       0.03       0.00      0.000
4:00pm            262          3         11         46         61       73.4       66.2      29.02      15.55       66.2       73.8       68.1       52.4       0.03       0.00      0.000
4:30pm            117          0         10         47         60       74.4       67.1      29.01      15.55       67.1       74.9       68.9       52.8       0.03       0.00      0.000
5:00pm            303          3         13         47         62       74.9       65.1      29.02      15.55       65.1       75.4       67.1       51.8       0.03       0.00      0.000
5:30pm            260          1         11         45         62       75.2       65.3      29.03      15.55       65.3       75.5       67.3       52.0       0.03       0.00      0.000
6:00pm            260          2          6         45         68       75.3       63.1      29.03      15.55       63.1       75.6       65.8       52.4       0.03       0.00      0.000
6:30pm            137          3          6         45         71       75.3       61.6      29.03      15.55       61.6       75.6       64.7       52.1       0.03       0.00      0.000
7:00pm            196          0          6         46         73       75.3       61.5      29.05      15.55       61.5       75.7       64.8       52.8       0.03       0.00      0.000
7:30pm            270          0          9         46         77       75.3       59.8      29.05      15.55       59.8       75.7       63.6       52.6       0.03       0.00      0.000
8:00pm            219          0          5         47         80       75.0       59.9      29.06      15.55       59.9       75.5       64.1       53.7       0.03       0.00      0.000
8:30pm            250          0          4         48         78       74.2       59.7      29.07      15.55       59.7       74.8       63.7       52.8       0.03       0.00      0.000
9:00pm            258          0          4         49         79       73.4       59.1      29.07      15.55       59.1       74.1       63.2       52.6       0.03       0.00      0.000
9:30pm            276          0          4         50         79       72.7       58.8      29.08      15.55       58.8       73.5       62.9       52.3       0.03       0.00      0.000
10:00pm           285          1          6         51         80       72.3       58.4      29.09      15.55       58.4       73.2       62.6       52.3       0.03       0.00      0.000
10:30pm           278          0          4         51         81       72.0       58.2      29.07      15.55       58.2       72.9       62.6       52.4       0.03       0.00      0.000
11:00pm           288          1          5         52         81       71.7       57.9      29.08      15.55       57.9       72.7       62.3       52.1       0.03       0.00      0.000
11:30pm           204          1          3         52         81       71.4       57.9      29.09      15.55       57.9       72.4       62.3       52.1       0.03       0.00      0.000